Time;durP1;ratioP1;P1;durP2;ratioP2;P2;SDS_P1;SDS_P2;PMS_P1;PMS_P2;Temp;Humidity;BMP_temperature;BMP_pressure;BME280_temperature;BME280_humidity;BME280_pressure;Samples;Min_cycle;Max_cycle;Signal;HPM_P1;HPM_P2
2022/09/07 00:01:37;;;;;;;8.98;8.18;;;;;;;;;;4852018;29;20510;-77
2022/09/07 00:04:05;;;;;;;8.07;7.45;;;;;;;;;;4838080;29;20042;-78
2022/09/07 00:06:33;;;;;;;8.52;7.72;;;;;;;;;;4838871;29;20258;-77
2022/09/07 00:09:01;;;;;;;9.00;8.07;;;;;;;;;;4838991;29;20577;-78
2022/09/07 00:11:29;;;;;;;9.40;8.52;;;;;;;;;;4846079;29;20058;-78
2022/09/07 00:13:56;;;;;;;9.48;7.93;;;;;;;;;;4863888;29;20117;-78
2022/09/07 00:16:28;;;;;;;8.15;7.45;;;;;;;;;;4862244;29;20411;-77
2022/09/07 00:18:57;;;;;;;8.73;7.97;;;;;;;;;;4842116;29;20051;-78
2022/09/07 00:21:25;;;;;;;8.65;7.70;;;;;;;;;;4836589;29;20510;-78
2022/09/07 00:23:53;;;;;;;9.18;7.38;;;;;;;;;;4838994;29;20061;-78
2022/09/07 00:26:28;;;;;;;8.32;7.50;;;;;;;;;;4850519;29;20514;-77
2022/09/07 00:28:57;;;;;;;10.25;7.22;;;;;;;;;;4840490;29;20528;-78
2022/09/07 00:31:25;;;;;;;8.30;7.53;;;;;;;;;;4836562;29;20061;-78
2022/09/07 00:33:53;;;;;;;8.85;8.05;;;;;;;;;;4854560;29;20057;-78
2022/09/07 00:36:21;;;;;;;9.52;7.30;;;;;;;;;;4846117;29;20500;-77
2022/09/07 00:38:49;;;;;;;7.13;6.53;;;;;;;;;;4849312;29;20050;-78
2022/09/07 00:41:17;;;;;;;8.57;7.72;;;;;;;;;;4820636;29;20137;-78
2022/09/07 00:43:47;;;;;;;8.38;7.57;;;;;;;;;;4850951;29;20045;-78
2022/09/07 00:46:16;;;;;;;9.40;8.15;;;;;;;;;;4844733;29;20064;-78
2022/09/07 00:48:46;;;;;;;9.95;6.93;;;;;;;;;;4843865;29;20119;-77
2022/09/07 00:51:16;;;;;;;7.80;7.20;;;;;;;;;;4839348;29;20190;-77
2022/09/07 00:53:46;;;;;;;7.22;6.63;;;;;;;;;;4836729;29;20073;-78
2022/09/07 00:56:13;;;;;;;10.00;7.43;;;;;;;;;;4834684;29;20046;-77
2022/09/07 00:58:43;;;;;;;8.35;7.65;;;;;;;;;;4840311;29;20076;-78
2022/09/07 01:01:11;;;;;;;8.93;8.13;;;;;;;;;;4839841;29;20046;-78
2022/09/07 01:03:40;;;;;;;7.82;7.22;;;;;;;;;;4857121;29;20079;-78
2022/09/07 01:06:13;;;;;;;8.75;7.95;;;;;;;;;;4861751;29;20060;-78
2022/09/07 01:08:41;;;;;;;7.90;7.10;;;;;;;;;;4838422;29;20061;-78
2022/09/07 01:11:09;;;;;;;7.95;7.35;;;;;;;;;;4834386;29;20144;-76
2022/09/07 01:13:38;;;;;;;8.65;7.80;;;;;;;;;;4833280;29;20088;-77
2022/09/07 01:16:21;;;;;;;7.90;7.30;;;;;;;;;;4839764;29;20050;-77
2022/09/07 01:19:04;;;;;;;8.40;7.72;;;;;;;;;;4835855;29;20042;-77
2022/09/07 01:21:41;;;;;;;7.85;7.25;;;;;;;;;;4834220;29;20049;-77
2022/09/07 01:24:23;;;;;;;7.47;6.95;;;;;;;;;;4835220;29;20046;-77
2022/09/07 01:26:51;;;;;;;;;;;;;;;;;;4849976;29;20761;-76
2022/09/07 01:29:37;;;;;;;8.43;6.88;;;;;;;;;;4849115;29;19961;-77
2022/09/07 01:32:16;;;;;;;7.90;7.18;;;;;;;;;;4834641;29;20642;-77
2022/09/07 01:34:45;;;;;;;9.80;7.10;;;;;;;;;;4834907;29;20077;-78
2022/09/07 01:37:20;;;;;;;8.32;7.20;;;;;;;;;;4835105;29;20141;-77
2022/09/07 01:39:53;;;;;;;8.13;6.93;;;;;;;;;;4834810;29;20057;-77
2022/09/07 01:42:23;;;;;;;8.32;7.63;;;;;;;;;;4835024;29;20472;-77
2022/09/07 01:44:57;;;;;;;8.20;7.50;;;;;;;;;;4832442;29;20053;-77
2022/09/07 01:47:33;;;;;;;9.50;7.60;;;;;;;;;;4823723;29;20188;-77
2022/09/07 01:50:06;;;;;;;8.38;7.60;;;;;;;;;;4853887;29;20041;-77
2022/09/07 01:52:42;;;;;;;7.95;7.25;;;;;;;;;;4841064;29;20145;-77
2022/09/07 01:55:15;;;;;;;8.50;7.70;;;;;;;;;;4835667;29;20038;-77
2022/09/07 01:57:46;;;;;;;15.07;7.97;;;;;;;;;;4834798;29;20061;-77
2022/09/07 02:00:15;;;;;;;7.80;7.13;;;;;;;;;;4817414;29;20392;-77
2022/09/07 02:02:55;;;;;;;10.02;8.63;;;;;;;;;;4841091;29;20412;-77
2022/09/07 02:05:27;;;;;;;7.93;6.97;;;;;;;;;;4833352;29;20054;-77
2022/09/07 02:07:54;;;;;;;;;;;;;;;;;;4871303;23;20085;-84
2022/09/07 02:10:32;;;;;;;7.97;7.35;;;;;;;;;;4855969;29;20303;-84
2022/09/07 02:13:00;;;;;;;8.23;7.53;;;;;;;;;;4853652;29;20102;-84
2022/09/07 02:15:37;;;;;;;10.25;7.25;;;;;;;;;;4854754;29;20057;-84
2022/09/07 02:18:06;;;;;;;10.38;7.78;;;;;;;;;;4860162;29;20053;-84
2022/09/07 02:20:36;;;;;;;8.35;7.65;;;;;;;;;;4853973;29;20402;-84
2022/09/07 02:23:06;;;;;;;8.40;7.55;;;;;;;;;;4854007;29;20049;-84
2022/09/07 02:25:39;;;;;;;9.10;8.18;;;;;;;;;;4854700;29;20186;-84
2022/09/07 02:28:12;;;;;;;11.40;8.68;;;;;;;;;;4856074;29;20404;-85
2022/09/07 02:30:40;;;;;;;9.88;8.88;;;;;;;;;;4854674;29;20423;-84
2022/09/07 02:33:07;;;;;;;10.35;9.27;;;;;;;;;;4853171;29;20060;-85
2022/09/07 02:35:35;;;;;;;9.63;8.27;;;;;;;;;;4861126;29;20049;-84
2022/09/07 02:38:04;;;;;;;11.20;10.10;;;;;;;;;;4853673;29;20056;-84
2022/09/07 02:40:31;;;;;;;16.77;13.30;;;;;;;;;;4854061;29;20121;-84
2022/09/07 02:43:00;;;;;;;18.52;12.88;;;;;;;;;;4856093;29;20500;-84
2022/09/07 02:45:33;;;;;;;21.15;14.45;;;;;;;;;;4855832;29;20057;-84
2022/09/07 02:48:06;;;;;;;20.65;13.63;;;;;;;;;;4855252;29;20056;-83
2022/09/07 02:50:45;;;;;;;22.50;17.30;;;;;;;;;;4856851;29;20060;-84
2022/09/07 02:53:24;;;;;;;24.98;15.85;;;;;;;;;;4854676;29;20144;-84
2022/09/07 02:56:11;;;;;;;21.25;14.75;;;;;;;;;;4836593;29;20132;-84
2022/09/07 02:58:44;;;;;;;27.15;17.48;;;;;;;;;;4853732;29;20056;-84
2022/09/07 03:01:18;;;;;;;25.35;18.08;;;;;;;;;;4855962;29;20448;-84
2022/09/07 03:03:51;;;;;;;26.23;18.65;;;;;;;;;;4856049;29;20737;-84
2022/09/07 03:06:22;;;;;;;31.50;18.80;;;;;;;;;;4861168;29;20045;-84
2022/09/07 03:08:50;;;;;;;;;;;;;;;;;;4858924;29;20703;-84
2022/09/07 03:11:17;;;;;;;27.65;16.88;;;;;;;;;;4854235;29;19932;-84
2022/09/07 03:13:47;;;;;;;25.73;17.23;;;;;;;;;;4848951;29;20405;-84
2022/09/07 03:16:15;;;;;;;24.83;17.40;;;;;;;;;;4853035;29;20060;-84
2022/09/07 03:18:43;;;;;;;26.65;16.75;;;;;;;;;;4854380;29;20052;-84
2022/09/07 03:21:10;;;;;;;24.98;17.65;;;;;;;;;;4855071;29;20117;-82
2022/09/07 03:23:38;;;;;;;29.02;17.83;;;;;;;;;;4868568;29;20044;-82
2022/09/07 03:26:05;;;;;;;26.38;17.42;;;;;;;;;;4860397;29;20053;-83
2022/09/07 03:28:33;;;;;;;27.08;17.30;;;;;;;;;;4860874;29;20056;-83
2022/09/07 03:31:01;;;;;;;22.25;16.70;;;;;;;;;;4857785;29;20038;-83
2022/09/07 03:33:29;;;;;;;24.20;16.42;;;;;;;;;;4864281;29;20056;-81
2022/09/07 03:35:57;;;;;;;22.60;15.68;;;;;;;;;;4861018;29;20053;-83
2022/09/07 03:38:25;;;;;;;22.40;15.20;;;;;;;;;;4863152;29;20380;-83
2022/09/07 03:40:59;;;;;;;24.05;15.70;;;;;;;;;;4827842;29;20057;-82
2022/09/07 03:43:27;;;;;;;18.95;15.15;;;;;;;;;;4857220;29;20041;-83
2022/09/07 03:46:02;;;;;;;19.42;14.50;;;;;;;;;;4858157;29;20056;-82
2022/09/07 03:48:30;;;;;;;19.33;14.57;;;;;;;;;;4839863;29;20499;-82
2022/09/07 03:51:02;;;;;;;17.13;13.15;;;;;;;;;;4869606;29;20137;-82
2022/09/07 03:53:34;;;;;;;14.13;11.80;;;;;;;;;;4867745;29;20102;-82
2022/09/07 03:56:03;;;;;;;14.40;12.00;;;;;;;;;;4866678;29;20105;-83
2022/09/07 03:58:31;;;;;;;16.38;12.60;;;;;;;;;;4865112;29;20049;-83
2022/09/07 04:00:59;;;;;;;15.15;12.57;;;;;;;;;;4865806;29;20405;-82
2022/09/07 04:03:26;;;;;;;17.27;12.63;;;;;;;;;;4866020;29;20049;-83
2022/09/07 04:05:54;;;;;;;13.70;12.25;;;;;;;;;;4865803;29;20576;-83
2022/09/07 04:08:23;;;;;;;15.32;12.73;;;;;;;;;;4869138;29;20048;-83
2022/09/07 04:10:51;;;;;;;17.08;12.20;;;;;;;;;;4859143;29;20535;-82
2022/09/07 04:13:18;;;;;;;13.18;11.77;;;;;;;;;;4866906;29;20045;-84
2022/09/07 04:15:46;;;;;;;12.23;11.02;;;;;;;;;;4867585;29;20081;-84
2022/09/07 04:18:20;;;;;;;11.75;10.50;;;;;;;;;;4865799;29;20041;-85
2022/09/07 04:20:50;;;;;;;12.10;10.73;;;;;;;;;;4866483;29;20054;-83
2022/09/07 04:23:18;;;;;;;10.55;9.45;;;;;;;;;;4866945;29;20104;-84
2022/09/07 04:25:48;;;;;;;10.90;9.85;;;;;;;;;;4865807;29;20067;-83
2022/09/07 04:28:16;;;;;;;11.15;9.93;;;;;;;;;;4851088;29;20052;-83
2022/09/07 04:30:44;;;;;;;10.30;9.30;;;;;;;;;;4863236;29;20056;-84
2022/09/07 04:33:12;;;;;;;11.05;9.82;;;;;;;;;;4839765;29;20046;-84
2022/09/07 04:35:40;;;;;;;10.75;9.75;;;;;;;;;;4839356;29;20466;-84
2022/09/07 04:38:08;;;;;;;11.70;10.65;;;;;;;;;;4849693;29;20044;-84
2022/09/07 04:40:35;;;;;;;11.52;9.60;;;;;;;;;;4871687;29;20059;-84
2022/09/07 04:43:04;;;;;;;11.48;10.27;;;;;;;;;;4866381;29;20056;-84
2022/09/07 04:45:31;;;;;;;10.43;9.52;;;;;;;;;;4866940;29;20056;-84
2022/09/07 04:47:59;;;;;;;11.23;9.60;;;;;;;;;;4860465;29;20045;-84
2022/09/07 04:50:26;;;;;;;10.23;9.32;;;;;;;;;;4856461;29;20140;-86
2022/09/07 04:52:53;;;;;;;12.13;9.80;;;;;;;;;;4857949;29;20053;-82
2022/09/07 04:55:21;;;;;;;10.40;9.50;;;;;;;;;;4856537;29;20064;-84
2022/09/07 04:57:49;;;;;;;11.10;9.55;;;;;;;;;;4866003;29;20052;-84
2022/09/07 05:00:16;;;;;;;9.63;8.73;;;;;;;;;;4881394;29;20025;-84
2022/09/07 05:02:44;;;;;;;10.15;9.30;;;;;;;;;;4896195;29;20105;-83
2022/09/07 05:05:11;;;;;;;10.00;9.02;;;;;;;;;;4871922;29;20052;-85
2022/09/07 05:07:38;;;;;;;10.80;9.80;;;;;;;;;;4866865;29;20042;-84
2022/09/07 05:10:06;;;;;;;11.20;10.20;;;;;;;;;;4866358;29;20368;-84
2022/09/07 05:12:33;;;;;;;10.57;9.48;;;;;;;;;;4858459;29;20056;-86
2022/09/07 05:15:00;;;;;;;10.50;9.45;;;;;;;;;;4867033;29;20396;-84
2022/09/07 05:17:29;;;;;;;10.50;9.40;;;;;;;;;;4865589;29;20061;-86
2022/09/07 05:19:57;;;;;;;10.02;9.18;;;;;;;;;;4865113;29;20413;-84
2022/09/07 05:22:25;;;;;;;9.60;8.70;;;;;;;;;;4861799;29;20049;-84
2022/09/07 05:24:52;;;;;;;10.98;9.13;;;;;;;;;;4865779;29;20048;-85
2022/09/07 05:27:19;;;;;;;10.68;9.55;;;;;;;;;;4865764;29;20037;-84
2022/09/07 05:29:47;;;;;;;10.18;9.38;;;;;;;;;;4864501;29;20053;-84
2022/09/07 05:32:31;;;;;;;10.93;9.88;;;;;;;;;;4862568;29;20547;-85
2022/09/07 05:34:59;;;;;;;12.27;10.30;;;;;;;;;;4850623;29;20056;-86
2022/09/07 05:37:26;;;;;;;12.45;11.25;;;;;;;;;;4860452;29;20056;-84
2022/09/07 05:39:55;;;;;;;12.27;10.60;;;;;;;;;;4865592;29;20559;-84
2022/09/07 05:42:23;;;;;;;14.98;12.23;;;;;;;;;;4873909;29;20619;-84
2022/09/07 05:44:50;;;;;;;11.32;10.32;;;;;;;;;;4871284;29;20049;-84
2022/09/07 05:47:17;;;;;;;12.32;10.75;;;;;;;;;;4836947;29;20168;-85
2022/09/07 05:49:45;;;;;;;11.18;10.23;;;;;;;;;;4859345;29;20056;-84
2022/09/07 05:52:12;;;;;;;12.75;11.32;;;;;;;;;;4857173;29;20046;-87
2022/09/07 05:54:40;;;;;;;16.42;11.98;;;;;;;;;;4852715;29;20108;-84
2022/09/07 05:57:09;;;;;;;20.30;12.65;;;;;;;;;;4863752;29;20542;-85
2022/09/07 05:59:37;;;;;;;19.10;12.88;;;;;;;;;;4818287;29;20148;-84
2022/09/07 06:02:04;;;;;;;16.77;12.90;;;;;;;;;;4853944;29;20052;-84
2022/09/07 06:04:32;;;;;;;16.95;13.02;;;;;;;;;;4856644;29;20045;-85
2022/09/07 06:06:59;;;;;;;18.52;12.70;;;;;;;;;;4857403;29;20057;-84
2022/09/07 06:09:47;;;;;;;13.18;11.95;;;;;;;;;;4860845;29;20504;-84
2022/09/07 06:12:34;;;;;;;14.40;12.80;;;;;;;;;;4856989;29;20503;-84
2022/09/07 06:15:03;;;;;;;15.30;12.95;;;;;;;;;;4858540;29;20773;-84
2022/09/07 06:17:31;;;;;;;12.27;11.23;;;;;;;;;;4880856;29;20053;-84
2022/09/07 06:19:58;;;;;;;12.27;11.27;;;;;;;;;;4870765;29;20053;-84
2022/09/07 06:22:25;;;;;;;12.38;11.30;;;;;;;;;;4873587;29;20053;-85
2022/09/07 06:24:57;;;;;;;;;;;;;;;;;;4872034;29;20522;-84
2022/09/07 06:27:24;;;;;;;14.48;12.75;;;;;;;;;;4873121;29;19931;-85
2022/09/07 06:29:52;;;;;;;14.90;13.40;;;;;;;;;;4874928;29;20049;-84
2022/09/07 06:32:19;;;;;;;17.42;13.50;;;;;;;;;;4875306;29;20586;-85
2022/09/07 06:35:08;;;;;;;13.68;12.48;;;;;;;;;;4864096;29;20044;-85
2022/09/07 06:37:35;;;;;;;15.05;12.88;;;;;;;;;;4864484;29;20485;-84
2022/09/07 06:40:03;;;;;;;14.23;12.93;;;;;;;;;;4863000;29;20130;-84
2022/09/07 06:42:30;;;;;;;15.05;13.57;;;;;;;;;;4863379;29;20045;-86
2022/09/07 06:44:57;;;;;;;15.27;13.80;;;;;;;;;;4864205;29;20049;-84
2022/09/07 06:47:25;;;;;;;14.80;13.48;;;;;;;;;;4869050;29;20044;-85
2022/09/07 06:49:52;;;;;;;15.32;13.60;;;;;;;;;;4857911;29;20123;-84
2022/09/07 06:52:19;;;;;;;16.17;14.60;;;;;;;;;;4863078;29;20046;-84
2022/09/07 06:54:47;;;;;;;15.55;14.18;;;;;;;;;;4872830;29;20434;-85
2022/09/07 06:57:29;;;;;;;14.35;13.07;;;;;;;;;;4873662;29;20053;-85
2022/09/07 06:59:57;;;;;;;13.10;11.95;;;;;;;;;;4874573;29;20261;-85
2022/09/07 07:02:25;;;;;;;13.73;12.40;;;;;;;;;;4872733;29;20487;-86
2022/09/07 07:04:52;;;;;;;14.52;13.18;;;;;;;;;;4863154;29;20053;-84
2022/09/07 07:07:19;;;;;;;13.85;12.63;;;;;;;;;;4859139;29;20049;-84
2022/09/07 07:09:49;;;;;;;13.38;12.18;;;;;;;;;;4860159;29;20064;-84
2022/09/07 07:12:17;;;;;;;13.35;11.98;;;;;;;;;;4855773;29;20053;-85
2022/09/07 07:14:43;;;;;;;15.02;13.63;;;;;;;;;;4878007;29;20058;-84
2022/09/07 07:17:11;;;;;;;14.15;12.82;;;;;;;;;;4877413;29;20128;-85
2022/09/07 07:19:39;;;;;;;14.02;12.85;;;;;;;;;;4851624;29;20053;-85
2022/09/07 07:22:06;;;;;;;15.15;12.27;;;;;;;;;;4869533;29;20503;-85
2022/09/07 07:24:53;;;;;;;13.77;12.38;;;;;;;;;;4851439;29;20064;-85
2022/09/07 07:27:21;;;;;;;13.55;12.32;;;;;;;;;;4866069;29;20049;-84
2022/09/07 07:29:48;;;;;;;14.15;12.95;;;;;;;;;;4839781;29;20053;-84
2022/09/07 07:32:16;;;;;;;14.20;12.57;;;;;;;;;;4839838;29;20603;-85
2022/09/07 07:34:43;;;;;;;13.18;12.07;;;;;;;;;;4841053;29;20054;-84
2022/09/07 07:37:10;;;;;;;16.48;11.57;;;;;;;;;;4874524;29;20136;-84
2022/09/07 07:39:38;;;;;;;12.38;11.38;;;;;;;;;;4876951;29;20424;-85
2022/09/07 07:42:25;;;;;;;14.00;12.73;;;;;;;;;;4873114;29;20044;-85
2022/09/07 07:44:54;;;;;;;14.73;13.40;;;;;;;;;;4870560;29;20042;-85
2022/09/07 07:47:41;;;;;;;15.70;13.77;;;;;;;;;;4877161;29;20427;-85
2022/09/07 07:50:09;;;;;;;14.05;12.85;;;;;;;;;;4876956;29;20081;-84
2022/09/07 07:52:56;;;;;;;13.80;12.70;;;;;;;;;;4878232;29;20579;-84
2022/09/07 07:55:44;;;;;;;13.13;11.82;;;;;;;;;;4877491;29;20486;-84
2022/09/07 07:58:11;;;;;;;14.77;13.13;;;;;;;;;;4877798;29;20113;-85
2022/09/07 08:00:39;;;;;;;12.70;11.63;;;;;;;;;;4862436;29;20045;-85
2022/09/07 08:03:21;;;;;;;13.63;12.45;;;;;;;;;;4855104;29;20533;-84
2022/09/07 08:05:49;;;;;;;13.38;12.18;;;;;;;;;;4857478;29;20527;-87
2022/09/07 08:08:16;;;;;;;13.07;11.05;;;;;;;;;;4918563;23;20052;-78
2022/09/07 08:10:46;;;;;;;11.80;10.63;;;;;;;;;;4858266;29;20060;-77
2022/09/07 08:13:13;;;;;;;11.32;10.32;;;;;;;;;;4833857;29;20061;-77
2022/09/07 08:15:45;;;;;;;11.63;10.45;;;;;;;;;;4839677;29;20049;-77
2022/09/07 08:18:13;;;;;;;11.40;9.95;;;;;;;;;;4838976;29;20054;-76
2022/09/07 08:20:41;;;;;;;10.85;9.80;;;;;;;;;;4837559;29;20046;-77
2022/09/07 08:23:09;;;;;;;10.80;9.80;;;;;;;;;;4839459;29;20042;-77
2022/09/07 08:25:36;;;;;;;10.38;9.48;;;;;;;;;;4839242;29;20046;-78
2022/09/07 08:28:04;;;;;;;10.80;9.07;;;;;;;;;;4859086;29;20041;-77
2022/09/07 08:30:31;;;;;;;9.95;9.00;;;;;;;;;;4838893;29;20064;-78
2022/09/07 08:32:58;;;;;;;9.60;8.77;;;;;;;;;;4841707;29;20064;-78
2022/09/07 08:35:26;;;;;;;9.40;8.60;;;;;;;;;;4843470;29;20058;-78
2022/09/07 08:37:53;;;;;;;9.93;9.05;;;;;;;;;;4827698;29;20054;-78
2022/09/07 08:40:20;;;;;;;9.88;8.93;;;;;;;;;;4838782;29;20413;-78
2022/09/07 08:43:03;;;;;;;9.15;8.35;;;;;;;;;;4840300;29;20128;-78
2022/09/07 08:45:33;;;;;;;8.73;8.02;;;;;;;;;;4824681;29;20046;-78
2022/09/07 08:48:03;;;;;;;10.07;8.07;;;;;;;;;;4839112;29;20037;-78
2022/09/07 08:50:34;;;;;;;9.45;7.93;;;;;;;;;;4854449;29;20440;-78
2022/09/07 08:53:03;;;;;;;8.23;7.35;;;;;;;;;;4840313;29;20053;-78
2022/09/07 08:55:33;;;;;;;7.93;7.32;;;;;;;;;;4838068;29;20464;-78
2022/09/07 08:58:12;;;;;;;7.65;7.00;;;;;;;;;;4838838;29;20053;-78
2022/09/07 09:00:59;;;;;;;7.35;6.60;;;;;;;;;;4825463;29;20042;-78
2022/09/07 09:03:47;;;;;;;6.80;6.07;;;;;;;;;;4826203;29;20054;-80
2022/09/07 09:06:34;;;;;;;6.82;6.20;;;;;;;;;;4850241;29;20042;-80
2022/09/07 09:09:31;;;;;;;5.47;4.97;;;;;;;;;;4838720;29;20220;-79
2022/09/07 09:12:17;;;;;;;6.10;5.50;;;;;;;;;;4820931;29;20050;-80
2022/09/07 09:15:04;;;;;;;7.28;4.20;;;;;;;;;;4826559;29;20056;-79
2022/09/07 09:17:34;;;;;;;4.80;4.25;;;;;;;;;;4843574;29;20486;-80
2022/09/07 09:20:22;;;;;;;6.10;4.90;;;;;;;;;;4873320;29;20053;-80
2022/09/07 09:22:51;;;;;;;5.40;5.10;;;;;;;;;;4831179;29;20052;-80
2022/09/07 09:25:24;;;;;;;5.43;4.43;;;;;;;;;;4842182;29;20498;-80
2022/09/07 09:27:52;;;;;;;5.40;4.45;;;;;;;;;;4840012;29;20053;-79
2022/09/07 09:30:20;;;;;;;4.53;4.20;;;;;;;;;;4825112;29;20095;-79
2022/09/07 09:32:48;;;;;;;4.15;3.88;;;;;;;;;;4840076;29;20408;-78
2022/09/07 09:35:16;;;;;;;5.65;4.70;;;;;;;;;;4841617;29;20061;-78
2022/09/07 09:37:44;;;;;;;5.38;4.65;;;;;;;;;;4823926;29;20122;-78
2022/09/07 09:40:29;;;;;;;4.70;4.30;;;;;;;;;;4830601;29;20222;-78
2022/09/07 09:43:00;;;;;;;4.65;4.22;;;;;;;;;;4837484;29;20235;-79
2022/09/07 09:45:29;;;;;;;4.80;4.47;;;;;;;;;;4822256;29;20054;-76
2022/09/07 09:47:57;;;;;;;6.35;5.50;;;;;;;;;;4839949;29;20077;-78
2022/09/07 09:50:26;;;;;;;5.43;4.50;;;;;;;;;;4837473;29;20511;-78
2022/09/07 09:53:27;;;;;;;4.40;4.00;;;;;;;;;;4839860;29;20050;-78
2022/09/07 09:55:55;;;;;;;5.80;4.20;;;;;;;;;;4827126;29;20054;-78
2022/09/07 09:58:32;;;;;;;3.60;3.30;;;;;;;;;;4850241;29;20046;-79
2022/09/07 10:01:32;;;;;;;5.60;3.10;;;;;;;;;;4840309;29;20050;-79
2022/09/07 10:04:17;;;;;;;4.65;3.03;;;;;;;;;;4839458;29;20077;-79
2022/09/07 10:06:49;;;;;;;3.38;3.08;;;;;;;;;;4837173;29;20098;-77
2022/09/07 10:09:18;;;;;;;5.72;2.97;;;;;;;;;;4836837;29;20049;-79
2022/09/07 10:11:47;;;;;;;5.07;3.60;;;;;;;;;;4837785;29;20156;-79
2022/09/07 10:14:36;;;;;;;3.03;2.83;;;;;;;;;;4824037;29;20050;-79
2022/09/07 10:17:11;;;;;;;5.65;3.13;;;;;;;;;;4822393;29;20058;-79
2022/09/07 10:19:41;;;;;;;4.38;3.22;;;;;;;;;;4837732;29;20084;-78
2022/09/07 10:22:21;;;;;;;2.95;2.67;;;;;;;;;;4838832;29;20076;-78
2022/09/07 10:24:50;;;;;;;3.08;2.88;;;;;;;;;;4807447;29;20082;-78
2022/09/07 10:27:20;;;;;;;4.45;2.90;;;;;;;;;;4824536;29;20057;-78
2022/09/07 10:29:48;;;;;;;5.37;3.20;;;;;;;;;;4849776;29;20042;-78
2022/09/07 10:32:29;;;;;;;3.28;3.00;;;;;;;;;;4837268;29;20302;-78
2022/09/07 10:35:19;;;;;;;3.60;2.90;;;;;;;;;;4836742;29;20140;-78
2022/09/07 10:37:52;;;;;;;5.10;2.80;;;;;;;;;;4823328;29;20110;-78
2022/09/07 10:40:28;;;;;;;6.85;3.50;;;;;;;;;;4827207;29;20141;-78
2022/09/07 10:42:59;;;;;;;3.30;3.00;;;;;;;;;;4852685;29;20082;-78
2022/09/07 10:45:46;;;;;;;;;;;;;;;;;;4838511;29;20046;-78
2022/09/07 10:48:28;;;;;;;3.30;2.60;;;;;;;;;;4847165;29;19939;-80
2022/09/07 10:50:57;;;;;;;5.07;2.90;;;;;;;;;;4836031;29;20083;-78
2022/09/07 10:53:57;;;;;;;4.22;2.80;;;;;;;;;;4819397;29;20115;-78
2022/09/07 10:57:03;;;;;;;2.85;2.60;;;;;;;;;;4826602;29;20061;-78
2022/09/07 10:59:34;;;;;;;4.95;2.53;;;;;;;;;;4835922;29;20367;-78
2022/09/07 11:02:27;;;;;;;5.07;2.80;;;;;;;;;;4843905;29;20053;-80
2022/09/07 11:05:01;;;;;;;3.20;2.30;;;;;;;;;;4854401;29;20196;-78
2022/09/07 11:07:32;;;;;;;4.22;2.92;;;;;;;;;;4855372;29;20081;-78
2022/09/07 11:10:03;;;;;;;5.47;2.70;;;;;;;;;;4857173;29;20056;-79
2022/09/07 11:12:33;;;;;;;5.57;2.42;;;;;;;;;;4831127;29;20319;-78
2022/09/07 11:15:00;;;;;;;2.70;2.20;;;;;;;;;;4819985;29;20056;-79
2022/09/07 11:17:29;;;;;;;3.28;2.20;;;;;;;;;;4823817;29;20046;-78
2022/09/07 11:20:17;;;;;;;3.90;2.40;;;;;;;;;;4821171;29;20057;-78
2022/09/07 11:22:47;;;;;;;2.65;2.30;;;;;;;;;;4852676;29;20467;-78
2022/09/07 11:25:24;;;;;;;3.10;2.70;;;;;;;;;;4852111;29;20469;-78
2022/09/07 11:28:12;;;;;;;4.53;2.83;;;;;;;;;;4837371;29;20050;-80
2022/09/07 11:30:43;;;;;;;4.65;2.63;;;;;;;;;;4839120;29;20511;-78
2022/09/07 11:33:21;;;;;;;5.63;2.45;;;;;;;;;;4836966;29;20076;-79
2022/09/07 11:35:54;;;;;;;4.88;2.80;;;;;;;;;;4839483;29;20136;-79
2022/09/07 11:38:26;;;;;;;7.00;2.80;;;;;;;;;;4836881;29;20042;-78
2022/09/07 11:40:59;;;;;;;3.88;2.60;;;;;;;;;;4839684;29;20048;-79
2022/09/07 11:43:47;;;;;;;6.60;2.60;;;;;;;;;;4825255;29;20046;-79
2022/09/07 11:46:15;;;;;;;5.82;2.97;;;;;;;;;;4839587;29;20050;-81
2022/09/07 11:48:45;;;;;;;2.90;2.55;;;;;;;;;;4848640;29;20046;-79
2022/09/07 11:51:33;;;;;;;3.53;2.37;;;;;;;;;;4860237;29;20072;-78
2022/09/07 11:54:02;;;;;;;3.50;2.85;;;;;;;;;;4849087;29;20050;-79
2022/09/07 11:56:31;;;;;;;6.82;2.83;;;;;;;;;;4838447;29;20078;-78
2022/09/07 11:59:21;;;;;;;6.18;2.92;;;;;;;;;;4836882;29;20050;-78
2022/09/07 12:01:53;;;;;;;4.70;2.88;;;;;;;;;;4839087;29;20038;-79
2022/09/07 12:04:23;;;;;;;9.43;2.92;;;;;;;;;;4836184;29;20499;-78
2022/09/07 12:07:05;;;;;;;4.53;2.70;;;;;;;;;;4852584;29;20117;-79
2022/09/07 12:09:46;;;;;;;4.75;3.30;;;;;;;;;;4833034;29;20079;-79
2022/09/07 12:12:32;;;;;;;4.20;2.80;;;;;;;;;;4858293;29;20070;-79
2022/09/07 12:15:12;;;;;;;6.40;2.80;;;;;;;;;;4861046;29;20483;-79
2022/09/07 12:17:46;;;;;;;3.70;2.30;;;;;;;;;;4861653;29;20418;-79
2022/09/07 12:20:18;;;;;;;4.50;2.42;;;;;;;;;;4841307;29;20042;-79
2022/09/07 12:22:56;;;;;;;5.68;2.35;;;;;;;;;;4840116;29;20095;-79
2022/09/07 12:25:31;;;;;;;4.47;2.30;;;;;;;;;;4842061;29;20052;-79
2022/09/07 12:27:58;;;;;;;7.22;2.55;;;;;;;;;;4841115;29;20464;-79
2022/09/07 12:30:25;;;;;;;2.92;2.05;;;;;;;;;;4844383;29;20407;-80
2022/09/07 12:32:53;;;;;;;5.63;2.60;;;;;;;;;;4843207;29;20038;-79
2022/09/07 12:35:26;;;;;;;2.97;2.10;;;;;;;;;;4850959;29;20053;-79
2022/09/07 12:37:57;;;;;;;4.07;2.57;;;;;;;;;;4858811;29;20137;-79
2022/09/07 12:43:13;;;;;;;7.57;2.53;;;;;;;;;;4859761;29;20507;-78
2022/09/07 12:45:43;;;;;;;4.20;2.38;;;;;;;;;;4848637;29;20312;-78
2022/09/07 12:48:17;;;;;;;7.70;2.72;;;;;;;;;;4833995;29;20084;-79
2022/09/07 12:50:59;;;;;;;3.75;2.00;;;;;;;;;;4830139;29;20053;-79
2022/09/07 12:53:33;;;;;;;7.72;2.13;;;;;;;;;;4839841;29;20080;-78
2022/09/07 12:56:15;;;;;;;8.35;2.33;;;;;;;;;;4844495;29;20422;-78
2022/09/07 12:58:44;;;;;;;2.85;2.10;;;;;;;;;;4833015;29;20058;-78
2022/09/07 13:01:31;;;;;;;3.05;1.83;;;;;;;;;;4806610;29;20102;-78
2022/09/07 13:04:18;;;;;;;6.32;1.85;;;;;;;;;;4853804;29;20526;-78
2022/09/07 13:07:00;;;;;;;4.60;1.80;;;;;;;;;;4837244;29;20056;-76
2022/09/07 13:09:29;;;;;;;3.85;2.00;;;;;;;;;;4821544;29;20049;-78
2022/09/07 13:11:56;;;;;;;3.20;1.63;;;;;;;;;;4842330;29;20091;-78
2022/09/07 13:14:25;;;;;;;7.00;1.80;;;;;;;;;;4837796;29;20211;-79
2022/09/07 13:17:11;;;;;;;4.40;1.70;;;;;;;;;;4831953;29;20088;-79
2022/09/07 13:19:45;;;;;;;4.68;2.10;;;;;;;;;;4821510;29;20330;-80
2022/09/07 13:22:32;;;;;;;3.08;1.83;;;;;;;;;;4834964;29;20046;-78
2022/09/07 13:25:19;;;;;;;3.22;1.88;;;;;;;;;;4831780;29;20311;-78
2022/09/07 13:27:51;;;;;;;6.82;1.92;;;;;;;;;;4828062;29;20061;-79
2022/09/07 13:30:21;;;;;;;5.88;1.50;;;;;;;;;;4838977;29;20130;-78
2022/09/07 13:32:49;;;;;;;3.35;1.73;;;;;;;;;;4811440;29;20050;-78
2022/09/07 13:35:36;;;;;;;3.13;1.70;;;;;;;;;;4829192;29;20430;-78
2022/09/07 13:38:04;;;;;;;4.55;1.67;;;;;;;;;;4843149;29;20061;-79
2022/09/07 13:40:33;;;;;;;3.40;1.58;;;;;;;;;;4825372;29;20062;-77
2022/09/07 13:43:02;;;;;;;4.93;1.65;;;;;;;;;;4830849;29;20499;-77
2022/09/07 13:45:48;;;;;;;3.53;1.73;;;;;;;;;;4830936;29;20156;-78
2022/09/07 13:48:35;;;;;;;4.53;1.35;;;;;;;;;;4823846;29;20068;-78
2022/09/07 13:51:22;;;;;;;5.13;1.83;;;;;;;;;;4835131;29;20085;-78
2022/09/07 13:53:56;;;;;;;3.75;1.58;;;;;;;;;;4830741;29;20047;-78
2022/09/07 13:56:26;;;;;;;2.40;1.40;;;;;;;;;;4837069;29;20057;-79
2022/09/07 13:58:54;;;;;;;3.30;2.25;;;;;;;;;;4852266;29;20499;-78
2022/09/07 14:01:23;;;;;;;4.07;1.70;;;;;;;;;;4837693;29;20050;-77
2022/09/07 14:03:51;;;;;;;5.47;1.70;;;;;;;;;;4835812;29;20100;-78
2022/09/07 14:06:24;;;;;;;4.38;1.50;;;;;;;;;;4822297;29;20514;-78
2022/09/07 14:08:58;;;;;;;5.03;1.65;;;;;;;;;;4819919;29;20057;-78
2022/09/07 14:11:37;;;;;;;3.25;1.25;;;;;;;;;;4841351;29;20567;-77
2022/09/07 14:14:07;;;;;;;2.55;1.40;;;;;;;;;;4840316;29;20078;-78
2022/09/07 14:16:35;;;;;;;3.22;1.52;;;;;;;;;;4844654;29;20049;-78
2022/09/07 14:19:08;;;;;;;5.25;1.60;;;;;;;;;;4840507;29;20042;-78
2022/09/07 14:21:38;;;;;;;2.28;1.20;;;;;;;;;;4822588;29;20056;-78
2022/09/07 14:24:18;;;;;;;7.90;1.80;;;;;;;;;;4852202;29;20041;-79
2022/09/07 14:26:47;;;;;;;2.33;1.30;;;;;;;;;;4836151;29;20053;-78
2022/09/07 14:29:25;;;;;;;3.20;1.20;;;;;;;;;;4833642;29;20075;-78
2022/09/07 14:31:52;;;;;;;2.47;1.10;;;;;;;;;;4836849;29;20057;-79
2022/09/07 14:34:22;;;;;;;3.83;1.45;;;;;;;;;;4834348;29;20046;-78
2022/09/07 14:36:50;;;;;;;2.80;1.38;;;;;;;;;;4837758;29;20117;-78
2022/09/07 14:39:18;;;;;;;4.55;1.48;;;;;;;;;;4840514;29;20156;-79
2022/09/07 14:41:46;;;;;;;3.10;1.50;;;;;;;;;;4839838;29;20046;-78
2022/09/07 14:44:26;;;;;;;5.40;1.40;;;;;;;;;;4841716;29;20683;-77
2022/09/07 14:46:54;;;;;;;9.03;1.43;;;;;;;;;;4840300;29;20076;-77
2022/09/07 14:49:24;;;;;;;6.63;1.58;;;;;;;;;;4841145;29;20188;-78
2022/09/07 14:51:52;;;;;;;4.35;1.40;;;;;;;;;;4851020;29;20566;-77
2022/09/07 14:54:21;;;;;;;6.22;1.55;;;;;;;;;;4847377;29;20057;-76
2022/09/07 14:57:00;;;;;;;5.78;1.58;;;;;;;;;;4834661;29;20226;-77
2022/09/07 14:59:38;;;;;;;6.20;1.70;;;;;;;;;;4850257;29;20084;-77
2022/09/07 15:02:32;;;;;;;4.07;1.60;;;;;;;;;;4851796;29;20042;-78
2022/09/07 15:05:17;;;;;;;8.25;1.42;;;;;;;;;;4830942;29;20110;-78
2022/09/07 15:07:52;;;;;;;4.93;1.48;;;;;;;;;;4835415;29;20415;-77
2022/09/07 15:10:22;;;;;;;3.65;1.40;;;;;;;;;;4837559;29;20166;-77